createdAt,value
2018-12-21T00:01:50.279Z,12.20
2018-12-21T00:04:19.067Z,13.72
2018-12-21T00:06:47.862Z,12.80
2018-12-21T00:09:16.859Z,10.97
2018-12-21T00:11:45.665Z,11.20
2018-12-21T00:14:14.500Z,10.50
2018-12-21T00:16:43.336Z,10.95
2018-12-21T00:19:12.150Z,12.50
2018-12-21T00:21:42.003Z,8.00
2018-12-21T00:24:10.811Z,9.90
2018-12-21T00:26:39.610Z,9.28
2018-12-21T00:29:08.423Z,9.10
2018-12-21T00:31:42.693Z,11.60
2018-12-21T00:34:17.019Z,10.08
2018-12-21T00:36:51.202Z,10.58
2018-12-21T00:39:25.451Z,10.72
2018-12-21T00:41:53.567Z,14.83
2018-12-21T00:44:39.951Z,8.67
2018-12-21T00:47:13.074Z,12.40
2018-12-21T00:49:42.618Z,9.38
2018-12-21T00:52:11.433Z,11.55
2018-12-21T00:54:40.266Z,8.00
2018-12-21T00:57:09.096Z,12.05
2018-12-21T00:59:37.882Z,9.30
2018-12-21T01:02:07.076Z,7.30
2018-12-21T01:04:35.980Z,8.10
2018-12-21T01:07:04.938Z,12.87
2018-12-21T01:09:33.999Z,8.90
2018-12-21T01:12:03.728Z,8.98
2018-12-21T01:14:32.617Z,9.55
2018-12-21T01:17:01.542Z,9.10
2018-12-21T01:19:30.406Z,8.63
2018-12-21T01:21:59.360Z,7.12
2018-12-21T01:24:28.216Z,7.23
2018-12-21T01:26:57.231Z,6.95
2018-12-21T01:29:26.087Z,7.42
2018-12-21T01:31:54.903Z,8.20
2018-12-21T01:34:23.705Z,9.00
2018-12-21T01:36:52.625Z,8.18
2018-12-21T01:39:21.442Z,7.40
2018-12-21T01:41:50.219Z,8.15
2018-12-21T01:44:19.058Z,8.88
2018-12-21T01:46:47.846Z,8.60
2018-12-21T01:49:16.644Z,7.27
2018-12-21T01:51:47.279Z,6.90
2018-12-21T01:54:16.215Z,8.05
2018-12-21T01:56:45.035Z,4.70
2018-12-21T01:59:13.790Z,6.37
2018-12-21T02:01:42.568Z,8.38
2018-12-21T02:04:11.486Z,5.72
2018-12-21T02:06:41.333Z,6.33
2018-12-21T02:09:10.107Z,7.15
2018-12-21T02:11:38.889Z,8.15
2018-12-21T02:14:07.682Z,6.83
2018-12-21T02:16:37.523Z,7.60
2018-12-21T02:19:06.393Z,10.82
2018-12-21T02:21:35.195Z,6.03
2018-12-21T02:24:04.146Z,4.83
2018-12-21T02:26:33.039Z,8.50
2018-12-21T02:29:01.870Z,8.05
2018-12-21T02:31:30.720Z,7.92
2018-12-21T02:33:59.505Z,8.33
2018-12-21T02:36:28.304Z,10.60
2018-12-21T02:38:57.102Z,6.80
2018-12-21T02:41:25.886Z,8.10
2018-12-21T02:43:54.663Z,6.23
2018-12-21T02:46:23.450Z,7.08
2018-12-21T02:48:53.200Z,9.60
2018-12-21T02:51:21.983Z,10.82
2018-12-21T02:53:50.760Z,7.57
2018-12-21T02:56:19.551Z,7.70
2018-12-21T02:58:48.426Z,10.63
2018-12-21T03:01:17.290Z,8.65
2018-12-21T03:03:46.091Z,7.87
2018-12-21T03:06:15.022Z,9.70
2018-12-21T03:08:43.809Z,9.40
2018-12-21T03:11:12.586Z,11.08
2018-12-21T03:13:41.388Z,8.95
2018-12-21T03:16:10.165Z,10.75
2018-12-21T03:18:39.014Z,10.72
2018-12-21T03:21:07.766Z,7.28
2018-12-21T03:23:36.542Z,8.90
2018-12-21T03:26:05.386Z,9.18
2018-12-21T03:28:34.226Z,9.23
2018-12-21T03:31:03.008Z,10.25
2018-12-21T03:33:31.829Z,9.83
2018-12-21T03:36:00.692Z,9.53
2018-12-21T03:38:29.463Z,7.70
2018-12-21T03:40:58.330Z,7.60
2018-12-21T03:43:27.112Z,10.58
2018-12-21T03:45:55.903Z,10.35
2018-12-21T03:48:24.722Z,12.45
2018-12-21T03:50:53.540Z,9.73
2018-12-21T03:53:22.464Z,9.97
2018-12-21T03:55:51.242Z,9.40
2018-12-21T03:58:20.188Z,12.15
2018-12-21T04:00:49.026Z,11.57
2018-12-21T04:03:17.838Z,12.23
2018-12-21T04:05:46.642Z,18.65
2018-12-21T04:08:15.419Z,9.08
2018-12-21T04:10:44.256Z,10.03
2018-12-21T04:13:13.063Z,12.05
2018-12-21T04:15:41.847Z,14.50
2018-12-21T04:18:10.678Z,10.33
2018-12-21T04:20:39.483Z,10.70
2018-12-21T04:23:08.276Z,10.78
2018-12-21T04:25:37.096Z,11.35
2018-12-21T04:28:05.882Z,6.47
2018-12-21T04:30:34.667Z,8.88
2018-12-21T04:33:03.475Z,9.30
2018-12-21T04:35:32.292Z,11.85
2018-12-21T04:38:01.073Z,12.82
2018-12-21T04:40:29.946Z,13.73
2018-12-21T04:42:58.728Z,14.93
2018-12-21T04:45:27.607Z,14.28
2018-12-21T04:47:56.415Z,12.18
2018-12-21T04:50:25.204Z,15.28
2018-12-21T04:52:53.991Z,13.67
2018-12-21T04:55:22.810Z,12.37
2018-12-21T04:57:51.708Z,9.05
2018-12-21T05:00:20.632Z,8.28
2018-12-21T05:02:49.436Z,6.03
2018-12-21T05:05:18.230Z,6.62
2018-12-21T05:07:47.008Z,6.23
2018-12-21T05:10:15.796Z,8.20
2018-12-21T05:12:44.679Z,6.03
2018-12-21T05:15:13.471Z,4.65
2018-12-21T05:17:42.255Z,8.65
2018-12-21T05:20:11.066Z,8.20
2018-12-21T05:22:39.972Z,11.22
2018-12-21T05:25:08.832Z,12.07
2018-12-21T05:27:37.679Z,11.48
2018-12-21T05:30:08.019Z,8.08
2018-12-21T05:32:36.796Z,10.35
2018-12-21T05:35:05.690Z,11.57
2018-12-21T05:37:34.503Z,9.38
2018-12-21T05:40:03.725Z,12.18
2018-12-21T05:42:32.539Z,9.20
2018-12-21T05:45:01.427Z,13.25
2018-12-21T05:47:31.259Z,12.40
2018-12-21T05:50:00.077Z,11.35
2018-12-21T05:52:28.864Z,16.25
2018-12-21T05:54:57.716Z,8.60
2018-12-21T05:57:27.068Z,11.23
2018-12-21T05:59:55.846Z,14.68
2018-12-21T06:02:24.645Z,9.85
2018-12-21T06:04:53.530Z,10.93
2018-12-21T06:07:23.244Z,11.53
2018-12-21T06:09:52.059Z,10.63
2018-12-21T06:12:20.813Z,10.53
2018-12-21T06:14:49.730Z,11.00
2018-12-21T06:17:18.509Z,7.65
2018-12-21T06:19:47.296Z,8.93
2018-12-21T06:22:16.070Z,9.93
2018-12-21T06:24:44.885Z,11.60
2018-12-21T06:27:13.679Z,11.50
2018-12-21T06:29:42.622Z,9.25
2018-12-21T06:32:11.405Z,10.95
2018-12-21T06:34:40.199Z,10.83
2018-12-21T06:37:09.020Z,6.55
2018-12-21T06:39:37.907Z,5.50
2018-12-21T06:42:06.736Z,5.95
2018-12-21T06:44:35.554Z,6.92
2018-12-21T06:47:04.402Z,5.20
2018-12-21T06:49:34.511Z,5.93
2018-12-21T06:52:03.407Z,7.40
2018-12-21T06:54:32.188Z,9.67
2018-12-21T06:57:01.094Z,3.83
2018-12-21T06:59:30.106Z,4.33
2018-12-21T07:01:58.938Z,6.95
2018-12-21T07:04:27.781Z,2.77
2018-12-21T07:06:56.546Z,5.75
2018-12-21T07:09:25.350Z,3.50
2018-12-21T07:11:54.226Z,3.45
2018-12-21T07:14:23.167Z,4.05
2018-12-21T07:16:51.963Z,4.55
2018-12-21T07:19:20.858Z,3.20
2018-12-21T07:21:49.668Z,2.85
2018-12-21T07:24:18.468Z,4.50
2018-12-21T07:26:47.253Z,3.02
2018-12-21T07:29:16.091Z,4.10
2018-12-21T07:31:44.899Z,1.67
2018-12-21T07:34:13.694Z,2.67
2018-12-21T07:36:42.488Z,3.90
2018-12-21T07:39:11.259Z,2.80
2018-12-21T07:41:40.084Z,13.05
2018-12-21T07:44:08.893Z,2.77
2018-12-21T07:46:37.709Z,3.77
2018-12-21T07:49:06.519Z,5.12
2018-12-21T07:51:37.363Z,8.35
2018-12-21T07:54:07.703Z,5.87
2018-12-21T07:56:36.493Z,4.10
2018-12-21T07:59:05.318Z,6.83
2018-12-21T08:01:34.147Z,6.50
2018-12-21T08:04:02.990Z,3.70
2018-12-21T08:06:31.871Z,7.53
2018-12-21T08:09:01.742Z,10.60
2018-12-21T08:11:30.577Z,9.63
2018-12-21T08:13:59.443Z,11.65
2018-12-21T08:16:28.258Z,13.62
2018-12-21T08:18:57.058Z,15.10
2018-12-21T08:21:25.950Z,15.08
2018-12-21T08:23:54.804Z,6.78
2018-12-21T08:26:23.618Z,10.78
2018-12-21T08:28:52.541Z,5.42
2018-12-21T08:31:21.314Z,6.95
2018-12-21T08:33:50.263Z,6.13
2018-12-21T08:36:19.232Z,8.07
2018-12-21T08:38:48.039Z,7.05
2018-12-21T08:41:16.810Z,11.33
2018-12-21T08:43:45.670Z,11.90
2018-12-21T08:46:14.566Z,6.95
2018-12-21T08:48:43.462Z,11.57
2018-12-21T08:51:12.283Z,13.67
2018-12-21T08:53:41.082Z,10.78
2018-12-21T08:56:09.894Z,6.72
2018-12-21T08:58:38.710Z,9.70
2018-12-21T09:01:07.489Z,9.80
2018-12-21T09:03:36.250Z,7.00
2018-12-21T09:06:05.072Z,10.60
2018-12-21T09:08:33.857Z,4.90
2018-12-21T09:11:02.610Z,8.10
2018-12-21T09:13:31.474Z,7.72
2018-12-21T09:16:00.327Z,8.70
2018-12-21T09:18:29.141Z,9.63
2018-12-21T09:20:57.927Z,11.85
2018-12-21T09:23:26.742Z,8.37
2018-12-21T09:25:55.510Z,7.40
2018-12-21T09:28:24.302Z,9.28
2018-12-21T09:30:53.206Z,9.43
2018-12-21T09:33:22.003Z,11.97
2018-12-21T09:35:50.768Z,5.80
2018-12-21T09:38:19.570Z,4.90
2018-12-21T09:40:48.458Z,10.28
2018-12-21T09:43:17.341Z,5.95
2018-12-21T09:45:46.089Z,4.50
2018-12-21T09:48:14.874Z,6.80
2018-12-21T09:50:44.787Z,11.93
2018-12-21T09:53:13.571Z,8.48
2018-12-21T09:55:42.448Z,4.17
2018-12-21T09:58:11.205Z,4.75
2018-12-21T10:00:39.985Z,2.85
2018-12-21T10:03:08.860Z,2.95
2018-12-21T10:05:37.659Z,2.60
2018-12-21T10:08:06.449Z,3.50
2018-12-21T10:10:35.245Z,3.87
2018-12-21T10:13:04.086Z,3.80
2018-12-21T10:15:32.923Z,4.20
2018-12-21T10:18:01.900Z,4.20
2018-12-21T10:20:30.809Z,3.98
2018-12-21T10:22:59.681Z,6.15
2018-12-21T10:25:28.486Z,4.00
2018-12-21T10:27:57.302Z,5.22
2018-12-21T10:30:26.299Z,4.35
2018-12-21T10:32:55.189Z,4.80
2018-12-21T10:35:24.058Z,3.83
2018-12-21T10:37:52.912Z,4.50
2018-12-21T10:40:21.847Z,4.75
2018-12-21T10:42:50.654Z,4.08
2018-12-21T10:45:19.638Z,4.83
2018-12-21T10:47:48.422Z,3.27
2018-12-21T10:50:17.298Z,3.90
2018-12-21T10:52:46.146Z,3.30
2018-12-21T10:55:14.950Z,2.30
2018-12-21T10:57:43.744Z,0.90
2018-12-21T11:00:12.937Z,1.57
2018-12-21T11:02:42.009Z,0.62
2018-12-21T11:05:10.792Z,0.53
2018-12-21T11:07:39.737Z,2.13
2018-12-21T11:10:10.726Z,2.52
2018-12-21T11:12:39.688Z,1.82
2018-12-21T11:15:08.552Z,0.82
2018-12-21T11:17:37.884Z,1.20
2018-12-21T11:20:08.942Z,1.10
2018-12-21T11:22:37.766Z,0.90
2018-12-21T11:25:09.226Z,1.30
2018-12-21T11:27:38.113Z,1.10
2018-12-21T11:30:08.836Z,1.98
2018-12-21T11:32:37.680Z,0.97
2018-12-21T11:35:07.044Z,0.98
2018-12-21T11:37:36.266Z,1.07
2018-12-21T11:40:05.493Z,1.57
2018-12-21T11:42:34.281Z,0.80
2018-12-21T11:45:03.208Z,0.75
2018-12-21T11:47:32.087Z,1.17
2018-12-21T11:50:00.944Z,1.00
2018-12-21T11:52:29.866Z,0.30
2018-12-21T11:54:59.109Z,0.68
2018-12-21T11:57:28.028Z,0.98
2018-12-21T11:59:56.893Z,1.35
2018-12-21T12:02:25.825Z,0.98
2018-12-21T12:04:54.637Z,1.20
2018-12-21T12:07:23.500Z,1.00
2018-12-21T12:09:52.498Z,2.08
2018-12-21T12:12:21.302Z,0.60
2018-12-21T12:14:51.010Z,1.20
2018-12-21T12:17:19.791Z,2.02
2018-12-21T12:19:48.610Z,0.93
2018-12-21T12:22:17.546Z,0.30
2018-12-21T12:24:52.779Z,1.50
2018-12-21T12:27:17.164Z,1.20
2018-12-21T12:29:45.956Z,0.40
2018-12-21T12:32:14.767Z,1.97
2018-12-21T12:34:44.354Z,1.07
2018-12-21T12:37:13.154Z,1.27
2018-12-21T12:39:42.060Z,0.40
2018-12-21T12:42:10.906Z,1.00
2018-12-21T12:44:39.699Z,1.50
2018-12-21T12:47:08.868Z,0.57
2018-12-21T12:49:37.653Z,0.70
2018-12-21T12:52:06.541Z,1.10
2018-12-21T12:54:35.322Z,0.55
2018-12-21T12:57:04.483Z,2.80
2018-12-21T12:59:33.265Z,0.65
2018-12-21T13:02:02.140Z,0.80
2018-12-21T13:04:30.963Z,0.55
2018-12-21T13:06:59.773Z,1.52
2018-12-21T13:09:28.568Z,0.65
2018-12-21T13:11:57.445Z,1.98
2018-12-21T13:14:26.415Z,1.02
2018-12-21T13:16:55.319Z,0.90
2018-12-21T13:19:24.176Z,1.10
2018-12-21T13:21:53.050Z,1.15
2018-12-21T13:24:21.839Z,1.15
2018-12-21T13:26:50.734Z,1.05
2018-12-21T13:29:19.570Z,0.60
2018-12-21T13:31:48.389Z,0.53
2018-12-21T13:34:17.198Z,1.03
2018-12-21T13:36:46.005Z,0.72
2018-12-21T13:39:15.247Z,1.17
2018-12-21T13:41:48.345Z,1.20
2018-12-21T13:44:17.122Z,2.45
2018-12-21T13:46:46.100Z,1.63
2018-12-21T13:49:14.898Z,2.15
2018-12-21T13:51:43.706Z,1.77
2018-12-21T13:54:13.649Z,2.02
2018-12-21T13:56:43.154Z,3.13
2018-12-21T13:59:12.050Z,4.22
2018-12-21T14:01:40.912Z,3.27
2018-12-21T14:04:09.686Z,3.65
2018-12-21T14:06:38.616Z,4.25
2018-12-21T14:09:07.990Z,4.20
2018-12-21T14:11:36.886Z,7.42
2018-12-21T14:14:05.691Z,7.42
2018-12-21T14:16:34.529Z,5.55
2018-12-21T14:19:03.522Z,6.40
2018-12-21T14:21:32.358Z,7.28
2018-12-21T14:24:01.445Z,7.33
2018-12-21T14:26:30.384Z,7.23
2018-12-21T14:28:59.799Z,7.53
2018-12-21T14:31:28.579Z,7.65
2018-12-21T14:33:57.464Z,12.18
2018-12-21T14:36:26.611Z,9.80
2018-12-21T14:38:55.471Z,10.20
2018-12-21T14:41:25.572Z,9.23
2018-12-21T14:43:54.877Z,13.28
2018-12-21T14:46:23.709Z,9.90
2018-12-21T14:48:52.614Z,11.18
2018-12-21T14:51:21.456Z,9.37
2018-12-21T14:53:50.254Z,10.65
2018-12-21T14:56:19.086Z,12.68
2018-12-21T14:58:47.887Z,11.73
2018-12-21T15:01:16.754Z,11.48
2018-12-21T15:03:45.623Z,14.30
2018-12-21T15:06:14.411Z,10.00
2018-12-21T15:08:43.202Z,12.43
2018-12-21T15:11:12.098Z,13.45
2018-12-21T15:13:40.898Z,11.75
2018-12-21T15:16:10.799Z,15.68
2018-12-21T15:18:39.768Z,13.88
2018-12-21T15:21:08.723Z,16.60
2018-12-21T15:23:37.650Z,15.20
2018-12-21T15:26:06.619Z,15.10
2018-12-21T15:28:35.478Z,14.90
2018-12-21T15:31:04.314Z,15.20
2018-12-21T15:33:33.108Z,16.00
2018-12-21T15:36:01.926Z,14.77
2018-12-21T15:38:30.824Z,15.85
2018-12-21T15:40:59.653Z,20.05
2018-12-21T15:43:28.446Z,16.25
2018-12-21T15:45:57.258Z,15.15
2018-12-21T15:48:26.087Z,20.65
2018-12-21T15:50:54.862Z,16.10
2018-12-21T15:53:23.639Z,19.42
2018-12-21T15:55:54.946Z,15.03
2018-12-21T15:58:23.185Z,23.05
2018-12-21T16:00:51.946Z,22.85
2018-12-21T16:03:20.745Z,18.37
2018-12-21T16:05:49.539Z,22.07
2018-12-21T16:08:18.359Z,20.62
2018-12-21T16:10:47.146Z,24.55
2018-12-21T16:13:15.992Z,23.87
2018-12-21T16:15:44.754Z,23.35
2018-12-21T16:18:13.758Z,23.60
2018-12-21T16:20:42.599Z,23.77
2018-12-21T16:23:11.412Z,22.53
2018-12-21T16:25:40.206Z,24.85
2018-12-21T16:28:09.007Z,23.05
2018-12-21T16:30:38.124Z,20.37
2018-12-21T16:33:06.998Z,28.07
2018-12-21T16:35:35.867Z,21.25
2018-12-21T16:38:04.759Z,24.15
2018-12-21T16:40:33.518Z,25.37
2018-12-21T16:43:02.300Z,28.33
2018-12-21T16:45:31.118Z,28.30
2018-12-21T16:47:59.917Z,31.10
2018-12-21T16:50:28.707Z,30.10
2018-12-21T16:52:57.584Z,24.37
2018-12-21T16:55:26.390Z,33.13
2018-12-21T16:57:55.179Z,29.15
2018-12-21T17:00:23.971Z,29.15
2018-12-21T17:02:52.775Z,30.75
2018-12-21T17:05:21.720Z,31.37
2018-12-21T17:07:50.683Z,31.00
2018-12-21T17:10:22.328Z,31.68
2018-12-21T17:12:51.211Z,29.55
2018-12-21T17:15:20.137Z,32.10
2018-12-21T17:17:48.999Z,35.95
2018-12-21T17:20:17.902Z,29.72
2018-12-21T17:22:46.724Z,33.05
2018-12-21T17:25:15.729Z,33.98
2018-12-21T17:27:44.574Z,28.07
2018-12-21T17:30:13.747Z,32.05
2018-12-21T17:32:42.544Z,32.38
2018-12-21T17:35:11.495Z,34.50
2018-12-21T17:37:40.387Z,29.90
2018-12-21T17:40:11.162Z,31.35
2018-12-21T17:42:39.937Z,30.12
2018-12-21T17:45:11.002Z,31.40
2018-12-21T17:47:39.832Z,30.92
2018-12-21T17:50:10.002Z,36.00
2018-12-21T17:52:38.766Z,34.03
2018-12-21T17:55:08.891Z,34.73
2018-12-21T17:57:37.660Z,36.53
2018-12-21T18:00:11.426Z,30.97
2018-12-21T18:02:40.277Z,37.05
2018-12-21T18:05:09.160Z,36.40
2018-12-21T18:07:38.174Z,35.13
2018-12-21T18:10:08.878Z,37.05
2018-12-21T18:12:37.637Z,38.33
2018-12-21T18:15:07.704Z,36.63
2018-12-21T18:17:36.505Z,35.08
2018-12-21T18:20:08.775Z,36.10
2018-12-21T18:22:37.574Z,36.00
2018-12-21T18:25:14.045Z,40.67
2018-12-21T18:27:44.690Z,35.40
2018-12-21T18:30:20.223Z,37.50
2018-12-21T18:33:10.622Z,38.38
2018-12-21T18:35:42.118Z,33.55
2018-12-21T18:38:16.413Z,37.28
2018-12-21T18:40:45.219Z,37.58
2018-12-21T18:43:14.066Z,38.53
2018-12-21T18:45:42.847Z,33.35
2018-12-21T18:48:11.646Z,44.80
2018-12-21T18:50:40.511Z,38.48
2018-12-21T18:53:09.306Z,33.67
2018-12-21T18:55:38.213Z,37.67
2018-12-21T18:58:07.950Z,37.50
2018-12-21T19:00:37.370Z,35.68
2018-12-21T19:03:06.658Z,39.03
2018-12-21T19:05:35.463Z,43.48
2018-12-21T19:08:04.248Z,39.38
2018-12-21T19:10:33.131Z,35.43
2018-12-21T19:13:01.906Z,37.80
2018-12-21T19:15:30.730Z,35.85
2018-12-21T19:17:59.783Z,37.15
2018-12-21T19:20:29.775Z,38.90
2018-12-21T19:22:58.630Z,38.23
2018-12-21T19:25:27.534Z,39.10
2018-12-21T19:27:56.398Z,43.45
2018-12-21T19:30:25.369Z,32.90
2018-12-21T19:32:54.214Z,38.73
2018-12-21T19:35:27.660Z,43.73
2018-12-21T19:37:53.868Z,36.53
2018-12-21T19:40:22.652Z,39.35
2018-12-21T19:42:51.516Z,35.33
2018-12-21T19:45:20.380Z,37.78
2018-12-21T19:47:49.533Z,38.38
2018-12-21T19:50:18.346Z,39.33
2018-12-21T19:52:47.210Z,33.33
2018-12-21T19:55:52.787Z,34.78
2018-12-21T19:58:21.576Z,39.42
2018-12-21T20:00:50.579Z,35.63
2018-12-21T20:03:19.359Z,34.75
2018-12-21T20:05:48.294Z,34.17
2018-12-21T20:08:20.614Z,32.15
2018-12-21T20:10:49.443Z,36.47
2018-12-21T20:13:18.245Z,35.17
2018-12-21T20:15:47.483Z,34.53
2018-12-21T20:18:16.356Z,32.25
2018-12-21T20:20:45.142Z,37.42
2018-12-21T20:23:14.807Z,40.47
2018-12-21T20:25:43.633Z,38.25
2018-12-21T20:28:12.430Z,36.38
2018-12-21T20:30:41.210Z,40.17
2018-12-21T20:33:10.428Z,34.30
2018-12-21T20:35:41.371Z,41.13
2018-12-21T20:38:11.150Z,43.20
2018-12-21T20:40:40.159Z,38.67
2018-12-21T20:43:09.227Z,36.17
2018-12-21T20:45:38.615Z,37.80
2018-12-21T20:48:07.908Z,34.25
2018-12-21T20:50:36.726Z,40.25
2018-12-21T20:53:05.559Z,35.00
2018-12-21T20:55:34.365Z,43.83
2018-12-21T20:58:09.232Z,35.20
2018-12-21T21:00:38.239Z,39.85
2018-12-21T21:03:07.016Z,36.05
2018-12-21T21:05:36.138Z,40.63
2018-12-21T21:08:06.026Z,36.10
2018-12-21T21:10:34.805Z,40.80
2018-12-21T21:13:03.769Z,39.75
2018-12-21T21:15:33.270Z,34.20
2018-12-21T21:18:02.061Z,41.73
2018-12-21T21:20:31.909Z,38.85
2018-12-21T21:23:00.748Z,44.40
2018-12-21T21:25:29.524Z,41.00
2018-12-21T21:27:58.369Z,33.40
2018-12-21T21:30:28.322Z,36.63
2018-12-21T21:32:57.166Z,37.45
2018-12-21T21:35:26.140Z,36.73
2018-12-21T21:37:55.046Z,39.45
2018-12-21T21:40:23.981Z,36.73
2018-12-21T21:42:57.436Z,38.30
2018-12-21T21:45:23.588Z,40.12
2018-12-21T21:47:52.515Z,34.05
2018-12-21T21:50:21.343Z,37.15
2018-12-21T21:52:50.224Z,36.95
2018-12-21T21:55:18.995Z,38.02
2018-12-21T21:57:47.783Z,38.90
2018-12-21T22:00:16.679Z,42.23
2018-12-21T22:02:46.338Z,37.30
2018-12-21T22:05:15.132Z,39.00
2018-12-21T22:07:43.938Z,32.28
2018-12-21T22:10:12.715Z,36.38
2018-12-21T22:12:41.514Z,44.40
2018-12-21T22:15:11.078Z,36.73
2018-12-21T22:17:40.037Z,39.08
2018-12-21T22:20:11.162Z,38.65
2018-12-21T22:22:40.051Z,37.03
2018-12-21T22:25:08.951Z,36.35
2018-12-21T22:27:37.728Z,38.60
2018-12-21T22:30:09.285Z,41.77
2018-12-21T22:32:38.299Z,34.03
2018-12-21T22:37:46.034Z,45.10
2018-12-21T22:40:14.911Z,40.70
2018-12-21T22:42:43.720Z,36.40
2018-12-21T22:45:12.518Z,40.15
2018-12-21T22:47:41.303Z,37.90
2018-12-21T22:50:10.281Z,41.88
2018-12-21T22:52:39.097Z,40.17
2018-12-21T22:55:08.716Z,36.45
2018-12-21T22:57:37.506Z,39.42
2018-12-21T23:00:12.184Z,42.53
2018-12-21T23:02:42.079Z,40.30
2018-12-21T23:05:10.875Z,41.57
2018-12-21T23:07:39.779Z,40.33
2018-12-21T23:10:08.858Z,44.63
2018-12-21T23:12:37.775Z,41.25
2018-12-21T23:15:06.689Z,37.85
2018-12-21T23:17:35.565Z,37.10
2018-12-21T23:20:04.718Z,45.40
2018-12-21T23:22:33.506Z,42.70
2018-12-21T23:25:03.596Z,38.65
2018-12-21T23:27:32.651Z,42.08
2018-12-21T23:30:01.518Z,43.08
2018-12-21T23:32:30.337Z,34.33
2018-12-21T23:34:59.143Z,39.00
2018-12-21T23:37:27.927Z,36.45
2018-12-21T23:39:56.750Z,36.33
2018-12-21T23:42:25.564Z,40.60
2018-12-21T23:44:54.462Z,41.23
2018-12-21T23:47:23.268Z,35.90
2018-12-21T23:49:52.207Z,38.95
2018-12-21T23:52:21.079Z,36.90
2018-12-21T23:54:49.913Z,40.98
2018-12-21T23:57:19.840Z,35.78
2018-12-21T23:59:48.754Z,36.77
